Hazardville, Connecticut
Current Conditions -  °F | °C
As of 5:51 PM on Friday 31 Oct 2014 (Local Time) from KBDL Reporting Station
Broken Clouds Broken Clouds  
Wind Chill: 51°   Ceiling: 3800
Heat Index: 51°   Visibility: 10mi
Dew Point: 38°   Wind: 9mph
Humidity: 61%   Direction: 10°N
Pressure: 29.94"   Gusts: NA
Location:  41.9843°N, 72.5534°W
Report Text: KBDL 312151Z 01008KT 10SM BKN038 11/03 A2994 RMK AO2 SLP138 T01060033
Loading
Personal Weather Stations






























Interactive Weather Map
Tropical Storm Tracking
New forecast layout! Learn more

10-Day Weather Forecast

Advertisements
Track Severe Weather on mobile